sensor_id;sensor_type;location;lat;lon;timestamp;temperature;humidity
63219;DHT22;49320;52.512;13.448;2022-08-04T00:00:10;27.50;45.70
63219;DHT22;49320;52.512;13.448;2022-08-04T00:06:03;27.50;46.00
63219;DHT22;49320;52.512;13.448;2022-08-04T00:08:49;27.40;46.20
63219;DHT22;49320;52.512;13.448;2022-08-04T00:11:29;27.50;45.80
63219;DHT22;49320;52.512;13.448;2022-08-04T00:14:02;27.50;45.80
63219;DHT22;49320;52.512;13.448;2022-08-04T00:16:37;27.40;45.90
63219;DHT22;49320;52.512;13.448;2022-08-04T00:19:15;27.40;46.00
63219;DHT22;49320;52.512;13.448;2022-08-04T00:21:54;27.40;46.00
63219;DHT22;49320;52.512;13.448;2022-08-04T00:24:25;27.30;45.80
63219;DHT22;49320;52.512;13.448;2022-08-04T00:26:54;27.40;45.90
63219;DHT22;49320;52.512;13.448;2022-08-04T00:29:22;27.30;46.00
63219;DHT22;49320;52.512;13.448;2022-08-04T00:31:49;27.40;46.00
63219;DHT22;49320;52.512;13.448;2022-08-04T00:34:25;27.40;46.00
63219;DHT22;49320;52.512;13.448;2022-08-04T00:36:54;27.40;46.10
63219;DHT22;49320;52.512;13.448;2022-08-04T00:39:22;27.30;46.10
63219;DHT22;49320;52.512;13.448;2022-08-04T00:55:03;27.30;46.10
63219;DHT22;49320;52.512;13.448;2022-08-04T01:03:45;27.20;46.30
63219;DHT22;49320;52.512;13.448;2022-08-04T01:06:36;27.20;46.40
63219;DHT22;49320;52.512;13.448;2022-08-04T01:12:32;27.20;46.30
63219;DHT22;49320;52.512;13.448;2022-08-04T01:15:06;27.10;46.40
63219;DHT22;49320;52.512;13.448;2022-08-04T01:18:05;27.10;46.30
63219;DHT22;49320;52.512;13.448;2022-08-04T01:20:40;27.00;46.80
63219;DHT22;49320;52.512;13.448;2022-08-04T01:29:26;27.00;47.00
63219;DHT22;49320;52.512;13.448;2022-08-04T01:32:25;27.00;46.60
63219;DHT22;49320;52.512;13.448;2022-08-04T01:38:28;26.90;47.00
63219;DHT22;49320;52.512;13.448;2022-08-04T01:41:06;26.90;47.30
63219;DHT22;49320;52.512;13.448;2022-08-04T01:43:37;26.90;46.80
63219;DHT22;49320;52.512;13.448;2022-08-04T01:46:10;26.80;46.80
63219;DHT22;49320;52.512;13.448;2022-08-04T01:48:41;26.80;47.00
63219;DHT22;49320;52.512;13.448;2022-08-04T01:51:12;26.80;47.00
63219;DHT22;49320;52.512;13.448;2022-08-04T01:53:41;26.70;47.00
63219;DHT22;49320;52.512;13.448;2022-08-04T01:56:10;26.70;47.10
63219;DHT22;49320;52.512;13.448;2022-08-04T01:58:39;26.80;47.20
63219;DHT22;49320;52.512;13.448;2022-08-04T02:01:11;26.70;47.20
63219;DHT22;49320;52.512;13.448;2022-08-04T02:03:41;26.60;47.30
63219;DHT22;49320;52.512;13.448;2022-08-04T02:09:45;26.60;47.20
63219;DHT22;49320;52.512;13.448;2022-08-04T02:20:33;26.50;47.70
63219;DHT22;49320;52.512;13.448;2022-08-04T02:23:09;26.40;47.40
63219;DHT22;49320;52.512;13.448;2022-08-04T02:25:54;26.40;47.50
63219;DHT22;49320;52.512;13.448;2022-08-04T02:28:37;26.40;47.70
63219;DHT22;49320;52.512;13.448;2022-08-04T02:31:30;26.30;47.80
63219;DHT22;49320;52.512;13.448;2022-08-04T02:34:05;26.30;47.80
63219;DHT22;49320;52.512;13.448;2022-08-04T02:36:40;26.30;47.70
63219;DHT22;49320;52.512;13.448;2022-08-04T02:39:09;26.20;47.50
63219;DHT22;49320;52.512;13.448;2022-08-04T02:41:38;26.20;47.50
63219;DHT22;49320;52.512;13.448;2022-08-04T02:44:08;26.20;48.10
63219;DHT22;49320;52.512;13.448;2022-08-04T02:46:37;26.10;47.60
63219;DHT22;49320;52.512;13.448;2022-08-04T02:49:07;26.10;47.60
63219;DHT22;49320;52.512;13.448;2022-08-04T02:51:44;26.10;47.70
63219;DHT22;49320;52.512;13.448;2022-08-04T02:54:17;26.10;48.00
63219;DHT22;49320;52.512;13.448;2022-08-04T02:57:01;26.00;47.70
63219;DHT22;49320;52.512;13.448;2022-08-04T03:00:05;26.00;47.70
63219;DHT22;49320;52.512;13.448;2022-08-04T03:02:53;26.00;48.10
63219;DHT22;49320;52.512;13.448;2022-08-04T03:05:33;26.00;48.10
63219;DHT22;49320;52.512;13.448;2022-08-04T03:14:27;25.90;48.30
63219;DHT22;49320;52.512;13.448;2022-08-04T03:24:15;25.70;48.30
63219;DHT22;49320;52.512;13.448;2022-08-04T03:30:12;25.70;48.60
63219;DHT22;49320;52.512;13.448;2022-08-04T03:42:28;25.50;48.30
63219;DHT22;49320;52.512;13.448;2022-08-04T03:51:42;25.40;48.20
63219;DHT22;49320;52.512;13.448;2022-08-04T04:01:42;25.40;49.00
63219;DHT22;49320;52.512;13.448;2022-08-04T04:04:57;25.40;48.70
63219;DHT22;49320;52.512;13.448;2022-08-04T04:07:58;25.40;49.10
63219;DHT22;49320;52.512;13.448;2022-08-04T04:14:59;25.40;49.20
63219;DHT22;49320;52.512;13.448;2022-08-04T04:17:54;25.40;49.20
63219;DHT22;49320;52.512;13.448;2022-08-04T04:21:05;25.40;49.10
63219;DHT22;49320;52.512;13.448;2022-08-04T04:27:14;25.40;49.00
63219;DHT22;49320;52.512;13.448;2022-08-04T04:30:07;25.40;49.30
63219;DHT22;49320;52.512;13.448;2022-08-04T04:35:40;25.40;49.10
63219;DHT22;49320;52.512;13.448;2022-08-04T04:38:33;25.40;49.00
63219;DHT22;49320;52.512;13.448;2022-08-04T04:41:28;25.40;49.20
63219;DHT22;49320;52.512;13.448;2022-08-04T04:50:43;25.50;49.30
63219;DHT22;49320;52.512;13.448;2022-08-04T04:59:21;25.60;49.50
63219;DHT22;49320;52.512;13.448;2022-08-04T05:02:27;25.60;49.40
63219;DHT22;49320;52.512;13.448;2022-08-04T05:05:26;25.60;49.80
63219;DHT22;49320;52.512;13.448;2022-08-04T05:08:03;25.70;49.40
63219;DHT22;49320;52.512;13.448;2022-08-04T05:14:13;25.70;50.00
63219;DHT22;49320;52.512;13.448;2022-08-04T05:17:16;25.60;49.90
63219;DHT22;49320;52.512;13.448;2022-08-04T05:19:58;25.80;50.00
63219;DHT22;49320;52.512;13.448;2022-08-04T05:22:31;25.80;49.70
63219;DHT22;49320;52.512;13.448;2022-08-04T05:25:24;25.80;49.80
63219;DHT22;49320;52.512;13.448;2022-08-04T05:28:15;25.90;50.20
63219;DHT22;49320;52.512;13.448;2022-08-04T05:30:56;25.90;50.30
63219;DHT22;49320;52.512;13.448;2022-08-04T05:33:32;25.90;49.90
63219;DHT22;49320;52.512;13.448;2022-08-04T05:36:06;26.00;50.10
63219;DHT22;49320;52.512;13.448;2022-08-04T05:38:54;26.10;50.10
63219;DHT22;49320;52.512;13.448;2022-08-04T05:41:26;26.30;50.10
63219;DHT22;49320;52.512;13.448;2022-08-04T05:44:12;26.50;50.00
63219;DHT22;49320;52.512;13.448;2022-08-04T05:46:43;26.70;49.80
63219;DHT22;49320;52.512;13.448;2022-08-04T05:49:24;27.00;49.70
63219;DHT22;49320;52.512;13.448;2022-08-04T05:51:55;27.20;49.50
63219;DHT22;49320;52.512;13.448;2022-08-04T05:54:25;27.40;49.50
63219;DHT22;49320;52.512;13.448;2022-08-04T05:56:55;27.60;49.10
63219;DHT22;49320;52.512;13.448;2022-08-04T05:59:24;27.80;48.90
63219;DHT22;49320;52.512;13.448;2022-08-04T06:01:55;27.90;48.70
63219;DHT22;49320;52.512;13.448;2022-08-04T06:04:30;28.10;48.60
63219;DHT22;49320;52.512;13.448;2022-08-04T06:07:00;28.30;48.50
63219;DHT22;49320;52.512;13.448;2022-08-04T06:09:27;28.40;48.40
63219;DHT22;49320;52.512;13.448;2022-08-04T06:12:17;28.50;48.40
63219;DHT22;49320;52.512;13.448;2022-08-04T06:14:49;28.50;48.20
63219;DHT22;49320;52.512;13.448;2022-08-04T06:17:30;28.60;48.70
63219;DHT22;49320;52.512;13.448;2022-08-04T06:20:19;28.70;48.10
63219;DHT22;49320;52.512;13.448;2022-08-04T06:22:53;28.80;48.00
63219;DHT22;49320;52.512;13.448;2022-08-04T06:25:25;28.80;47.90
63219;DHT22;49320;52.512;13.448;2022-08-04T06:27:57;29.00;47.90
63219;DHT22;49320;52.512;13.448;2022-08-04T06:30:27;29.00;47.80
63219;DHT22;49320;52.512;13.448;2022-08-04T06:32:58;29.10;47.80
63219;DHT22;49320;52.512;13.448;2022-08-04T06:35:31;29.00;47.70
63219;DHT22;49320;52.512;13.448;2022-08-04T06:38:00;29.20;47.70
63219;DHT22;49320;52.512;13.448;2022-08-04T06:40:29;29.30;47.60
63219;DHT22;49320;52.512;13.448;2022-08-04T06:43:01;29.40;47.60
63219;DHT22;49320;52.512;13.448;2022-08-04T06:45:32;29.50;47.50
63219;DHT22;49320;52.512;13.448;2022-08-04T06:48:01;29.50;47.40
63219;DHT22;49320;52.512;13.448;2022-08-04T06:50:31;29.60;47.30
63219;DHT22;49320;52.512;13.448;2022-08-04T06:53:20;29.60;47.20
63219;DHT22;49320;52.512;13.448;2022-08-04T06:55:49;29.70;47.00
63219;DHT22;49320;52.512;13.448;2022-08-04T06:58:19;29.80;46.80
63219;DHT22;49320;52.512;13.448;2022-08-04T07:00:48;29.80;46.90
63219;DHT22;49320;52.512;13.448;2022-08-04T07:03:18;29.80;46.70
63219;DHT22;49320;52.512;13.448;2022-08-04T07:05:48;29.90;46.60
63219;DHT22;49320;52.512;13.448;2022-08-04T07:08:17;30.00;46.50
63219;DHT22;49320;52.512;13.448;2022-08-04T07:10:44;30.10;46.40
63219;DHT22;49320;52.512;13.448;2022-08-04T07:13:12;30.10;46.20
63219;DHT22;49320;52.512;13.448;2022-08-04T07:15:43;30.20;46.10
63219;DHT22;49320;52.512;13.448;2022-08-04T07:18:12;30.30;46.00
63219;DHT22;49320;52.512;13.448;2022-08-04T07:20:43;30.30;45.90
63219;DHT22;49320;52.512;13.448;2022-08-04T07:23:13;30.40;45.70
63219;DHT22;49320;52.512;13.448;2022-08-04T07:25:50;30.50;45.70
63219;DHT22;49320;52.512;13.448;2022-08-04T07:28:29;30.50;45.50
63219;DHT22;49320;52.512;13.448;2022-08-04T07:30:57;30.60;45.50
63219;DHT22;49320;52.512;13.448;2022-08-04T07:33:24;30.70;45.40
63219;DHT22;49320;52.512;13.448;2022-08-04T07:35:54;30.80;45.40
63219;DHT22;49320;52.512;13.448;2022-08-04T07:38:33;30.80;45.20
63219;DHT22;49320;52.512;13.448;2022-08-04T07:41:11;30.90;45.20
63219;DHT22;49320;52.512;13.448;2022-08-04T07:43:59;31.00;45.10
63219;DHT22;49320;52.512;13.448;2022-08-04T07:46:27;31.10;44.90
63219;DHT22;49320;52.512;13.448;2022-08-04T07:48:59;31.10;44.70
63219;DHT22;49320;52.512;13.448;2022-08-04T07:51:27;31.20;44.50
63219;DHT22;49320;52.512;13.448;2022-08-04T07:53:57;31.30;44.40
63219;DHT22;49320;52.512;13.448;2022-08-04T07:56:25;31.30;44.30
63219;DHT22;49320;52.512;13.448;2022-08-04T07:58:53;31.30;44.30
63219;DHT22;49320;52.512;13.448;2022-08-04T08:01:22;31.40;44.20
63219;DHT22;49320;52.512;13.448;2022-08-04T08:03:52;31.50;44.20
63219;DHT22;49320;52.512;13.448;2022-08-04T08:06:22;31.50;44.00
63219;DHT22;49320;52.512;13.448;2022-08-04T08:09:01;31.60;43.90
63219;DHT22;49320;52.512;13.448;2022-08-04T08:11:41;31.70;43.90
63219;DHT22;49320;52.512;13.448;2022-08-04T08:14:29;31.70;43.60
63219;DHT22;49320;52.512;13.448;2022-08-04T08:16:58;31.80;43.50
63219;DHT22;49320;52.512;13.448;2022-08-04T08:19:32;31.80;43.90
63219;DHT22;49320;52.512;13.448;2022-08-04T08:22:00;31.90;43.20
63219;DHT22;49320;52.512;13.448;2022-08-04T08:24:31;31.90;43.10
63219;DHT22;49320;52.512;13.448;2022-08-04T08:27:02;32.00;42.90
63219;DHT22;49320;52.512;13.448;2022-08-04T08:29:33;32.10;42.80
63219;DHT22;49320;52.512;13.448;2022-08-04T08:32:06;32.20;42.60
63219;DHT22;49320;52.512;13.448;2022-08-04T08:34:36;32.20;42.30
63219;DHT22;49320;52.512;13.448;2022-08-04T08:37:31;32.30;42.40
63219;DHT22;49320;52.512;13.448;2022-08-04T08:40:12;32.30;42.00
63219;DHT22;49320;52.512;13.448;2022-08-04T08:55:54;32.90;41.40
63219;DHT22;49320;52.512;13.448;2022-08-04T09:08:49;33.30;40.80
63219;DHT22;49320;52.512;13.448;2022-08-04T09:11:55;33.50;40.80
63219;DHT22;49320;52.512;13.448;2022-08-04T09:14:44;33.60;40.20
63219;DHT22;49320;52.512;13.448;2022-08-04T09:17:36;33.70;40.40
63219;DHT22;49320;52.512;13.448;2022-08-04T09:20:18;33.70;40.20
63219;DHT22;49320;52.512;13.448;2022-08-04T09:22:57;33.80;40.10
63219;DHT22;49320;52.512;13.448;2022-08-04T09:25:45;33.90;40.40
63219;DHT22;49320;52.512;13.448;2022-08-04T09:28:30;34.00;39.80
63219;DHT22;49320;52.512;13.448;2022-08-04T09:31:30;34.10;40.00
63219;DHT22;49320;52.512;13.448;2022-08-04T09:34:48;34.20;39.50
63219;DHT22;49320;52.512;13.448;2022-08-04T09:40:54;34.50;39.10
63219;DHT22;49320;52.512;13.448;2022-08-04T09:47:11;34.50;39.20
63219;DHT22;49320;52.512;13.448;2022-08-04T09:50:36;34.70;38.70
63219;DHT22;49320;52.512;13.448;2022-08-04T09:53:35;34.80;38.70
63219;DHT22;49320;52.512;13.448;2022-08-04T09:56:31;34.90;38.80
63219;DHT22;49320;52.512;13.448;2022-08-04T10:01:55;35.00;38.60
63219;DHT22;49320;52.512;13.448;2022-08-04T10:04:28;35.00;38.40
63219;DHT22;49320;52.512;13.448;2022-08-04T10:07:08;35.10;38.00
63219;DHT22;49320;52.512;13.448;2022-08-04T10:10:16;35.20;37.80
63219;DHT22;49320;52.512;13.448;2022-08-04T10:16:22;35.20;38.30
63219;DHT22;49320;52.512;13.448;2022-08-04T10:19:25;35.30;37.50
63219;DHT22;49320;52.512;13.448;2022-08-04T10:22:02;35.40;37.30
63219;DHT22;49320;52.512;13.448;2022-08-04T10:25:16;35.50;37.40
63219;DHT22;49320;52.512;13.448;2022-08-04T10:28:26;35.60;37.10
63219;DHT22;49320;52.512;13.448;2022-08-04T10:31:02;35.50;37.30
63219;DHT22;49320;52.512;13.448;2022-08-04T10:33:53;35.70;36.90
63219;DHT22;49320;52.512;13.448;2022-08-04T10:36:29;35.80;36.60
63219;DHT22;49320;52.512;13.448;2022-08-04T10:39:05;35.90;36.80
63219;DHT22;49320;52.512;13.448;2022-08-04T10:42:15;36.10;36.50
63219;DHT22;49320;52.512;13.448;2022-08-04T10:45:00;36.10;36.30
63219;DHT22;49320;52.512;13.448;2022-08-04T10:47:58;36.20;36.20
63219;DHT22;49320;52.512;13.448;2022-08-04T10:50:36;36.30;35.90
63219;DHT22;49320;52.512;13.448;2022-08-04T10:53:19;36.30;36.10
63219;DHT22;49320;52.512;13.448;2022-08-04T10:55:53;36.40;35.30
63219;DHT22;49320;52.512;13.448;2022-08-04T10:58:45;36.40;35.50
63219;DHT22;49320;52.512;13.448;2022-08-04T11:01:24;36.50;35.00
63219;DHT22;49320;52.512;13.448;2022-08-04T11:04:24;36.60;35.20
63219;DHT22;49320;52.512;13.448;2022-08-04T11:06:58;36.60;35.00
63219;DHT22;49320;52.512;13.448;2022-08-04T11:09:27;36.70;35.30
63219;DHT22;49320;52.512;13.448;2022-08-04T11:12:02;36.70;35.10
63219;DHT22;49320;52.512;13.448;2022-08-04T11:14:50;36.80;34.80
63219;DHT22;49320;52.512;13.448;2022-08-04T11:17:26;36.80;34.50
63219;DHT22;49320;52.512;13.448;2022-08-04T11:23:13;36.90;34.00
63219;DHT22;49320;52.512;13.448;2022-08-04T11:25:58;36.90;33.80
63219;DHT22;49320;52.512;13.448;2022-08-04T11:29:07;37.00;33.80
63219;DHT22;49320;52.512;13.448;2022-08-04T11:31:42;37.10;33.90
63219;DHT22;49320;52.512;13.448;2022-08-04T11:34:23;37.10;33.60
63219;DHT22;49320;52.512;13.448;2022-08-04T11:39:54;37.30;33.50
63219;DHT22;49320;52.512;13.448;2022-08-04T11:42:35;37.30;33.70
63219;DHT22;49320;52.512;13.448;2022-08-04T11:45:15;37.40;33.20
63219;DHT22;49320;52.512;13.448;2022-08-04T11:47:54;37.40;33.00
63219;DHT22;49320;52.512;13.448;2022-08-04T11:50:38;37.40;33.10
63219;DHT22;49320;52.512;13.448;2022-08-04T11:53:11;37.50;32.40
63219;DHT22;49320;52.512;13.448;2022-08-04T11:55:44;37.50;33.00
63219;DHT22;49320;52.512;13.448;2022-08-04T11:58:34;37.50;32.80
63219;DHT22;49320;52.512;13.448;2022-08-04T12:04:20;37.70;32.40
63219;DHT22;49320;52.512;13.448;2022-08-04T12:07:19;37.70;32.70
63219;DHT22;49320;52.512;13.448;2022-08-04T12:10:21;37.80;31.90
63219;DHT22;49320;52.512;13.448;2022-08-04T12:13:14;37.70;31.70
63219;DHT22;49320;52.512;13.448;2022-08-04T12:16:19;37.80;31.70
63219;DHT22;49320;52.512;13.448;2022-08-04T12:19:06;37.90;31.30
63219;DHT22;49320;52.512;13.448;2022-08-04T12:21:48;38.00;31.50
63219;DHT22;49320;52.512;13.448;2022-08-04T12:24:40;38.00;31.70
63219;DHT22;49320;52.512;13.448;2022-08-04T12:27:16;38.10;31.20
63219;DHT22;49320;52.512;13.448;2022-08-04T12:29:57;38.20;31.50
63219;DHT22;49320;52.512;13.448;2022-08-04T12:32:52;38.20;31.60
63219;DHT22;49320;52.512;13.448;2022-08-04T12:35:34;38.30;31.00
63219;DHT22;49320;52.512;13.448;2022-08-04T12:38:35;38.30;30.90
63219;DHT22;49320;52.512;13.448;2022-08-04T12:41:15;38.40;31.30
63219;DHT22;49320;52.512;13.448;2022-08-04T12:43:48;38.40;31.10
63219;DHT22;49320;52.512;13.448;2022-08-04T12:46:23;38.50;31.10
63219;DHT22;49320;52.512;13.448;2022-08-04T12:48:59;38.50;30.50
63219;DHT22;49320;52.512;13.448;2022-08-04T12:51:36;38.60;30.70
63219;DHT22;49320;52.512;13.448;2022-08-04T12:54:28;38.60;30.40
63219;DHT22;49320;52.512;13.448;2022-08-04T12:56:57;38.60;30.80
63219;DHT22;49320;52.512;13.448;2022-08-04T12:59:25;38.60;30.60
63219;DHT22;49320;52.512;13.448;2022-08-04T13:01:53;38.60;30.40
63219;DHT22;49320;52.512;13.448;2022-08-04T13:04:37;38.60;30.40
63219;DHT22;49320;52.512;13.448;2022-08-04T13:07:22;38.60;30.30
63219;DHT22;49320;52.512;13.448;2022-08-04T13:09:52;38.60;30.10
63219;DHT22;49320;52.512;13.448;2022-08-04T13:12:25;38.60;30.40
63219;DHT22;49320;52.512;13.448;2022-08-04T13:15:07;38.70;30.00
63219;DHT22;49320;52.512;13.448;2022-08-04T13:17:55;38.70;29.80
63219;DHT22;49320;52.512;13.448;2022-08-04T13:20:28;38.70;29.90
63219;DHT22;49320;52.512;13.448;2022-08-04T13:23:09;38.70;30.00
63219;DHT22;49320;52.512;13.448;2022-08-04T13:25:43;38.70;30.00
63219;DHT22;49320;52.512;13.448;2022-08-04T13:28:33;38.70;29.80
63219;DHT22;49320;52.512;13.448;2022-08-04T13:31:13;38.70;30.00
63219;DHT22;49320;52.512;13.448;2022-08-04T13:33:44;38.70;29.80
63219;DHT22;49320;52.512;13.448;2022-08-04T13:36:14;38.70;29.80
63219;DHT22;49320;52.512;13.448;2022-08-04T13:38:51;38.70;29.70
63219;DHT22;49320;52.512;13.448;2022-08-04T13:41:20;38.80;29.40
63219;DHT22;49320;52.512;13.448;2022-08-04T13:43:56;38.70;29.60
63219;DHT22;49320;52.512;13.448;2022-08-04T13:47:09;38.70;29.30
63219;DHT22;49320;52.512;13.448;2022-08-04T13:49:40;38.70;29.50
63219;DHT22;49320;52.512;13.448;2022-08-04T13:52:27;38.70;29.40
63219;DHT22;49320;52.512;13.448;2022-08-04T13:54:54;38.80;29.40
63219;DHT22;49320;52.512;13.448;2022-08-04T13:57:28;38.80;29.40
63219;DHT22;49320;52.512;13.448;2022-08-04T14:00:00;38.90;29.00
63219;DHT22;49320;52.512;13.448;2022-08-04T14:02:38;38.90;29.00
63219;DHT22;49320;52.512;13.448;2022-08-04T14:05:22;39.00;28.70
63219;DHT22;49320;52.512;13.448;2022-08-04T14:10:35;39.10;28.50
63219;DHT22;49320;52.512;13.448;2022-08-04T14:13:04;39.10;28.70
63219;DHT22;49320;52.512;13.448;2022-08-04T14:15:35;39.10;28.60
63219;DHT22;49320;52.512;13.448;2022-08-04T14:18:30;39.10;28.40
63219;DHT22;49320;52.512;13.448;2022-08-04T14:21:12;39.10;28.30
63219;DHT22;49320;52.512;13.448;2022-08-04T14:23:48;39.10;27.80
63219;DHT22;49320;52.512;13.448;2022-08-04T14:26:31;39.20;27.90
63219;DHT22;49320;52.512;13.448;2022-08-04T14:29:14;39.10;27.80
63219;DHT22;49320;52.512;13.448;2022-08-04T14:32:04;39.10;27.70
63219;DHT22;49320;52.512;13.448;2022-08-04T14:34:41;39.10;27.80
63219;DHT22;49320;52.512;13.448;2022-08-04T14:37:14;39.10;28.10
63219;DHT22;49320;52.512;13.448;2022-08-04T14:39:51;39.20;27.90
63219;DHT22;49320;52.512;13.448;2022-08-04T14:42:42;39.20;28.00
63219;DHT22;49320;52.512;13.448;2022-08-04T14:45:29;39.10;28.00
63219;DHT22;49320;52.512;13.448;2022-08-04T14:48:19;39.10;27.60
63219;DHT22;49320;52.512;13.448;2022-08-04T14:50:49;39.10;27.90
63219;DHT22;49320;52.512;13.448;2022-08-04T14:53:21;39.10;27.90
63219;DHT22;49320;52.512;13.448;2022-08-04T14:55:57;39.00;27.70
63219;DHT22;49320;52.512;13.448;2022-08-04T14:58:28;39.00;27.80
63219;DHT22;49320;52.512;13.448;2022-08-04T15:01:07;39.00;27.70
63219;DHT22;49320;52.512;13.448;2022-08-04T15:03:42;38.90;27.80
63219;DHT22;49320;52.512;13.448;2022-08-04T15:06:18;39.00;27.80
63219;DHT22;49320;52.512;13.448;2022-08-04T15:08:50;38.90;27.80
63219;DHT22;49320;52.512;13.448;2022-08-04T15:11:18;39.00;27.90
63219;DHT22;49320;52.512;13.448;2022-08-04T15:13:52;38.90;27.90
63219;DHT22;49320;52.512;13.448;2022-08-04T15:16:21;38.90;27.90
63219;DHT22;49320;52.512;13.448;2022-08-04T15:18:49;38.90;27.80
63219;DHT22;49320;52.512;13.448;2022-08-04T15:21:21;38.90;27.80
63219;DHT22;49320;52.512;13.448;2022-08-04T15:23:49;38.90;27.70
63219;DHT22;49320;52.512;13.448;2022-08-04T15:26:31;38.90;27.70
63219;DHT22;49320;52.512;13.448;2022-08-04T15:29:16;38.90;27.40
63219;DHT22;49320;52.512;13.448;2022-08-04T15:31:49;38.90;27.50
63219;DHT22;49320;52.512;13.448;2022-08-04T15:34:51;38.90;27.70
63219;DHT22;49320;52.512;13.448;2022-08-04T15:37:30;38.90;27.40
63219;DHT22;49320;52.512;13.448;2022-08-04T15:42:47;38.90;27.30
63219;DHT22;49320;52.512;13.448;2022-08-04T15:45:51;38.90;27.60
63219;DHT22;49320;52.512;13.448;2022-08-04T15:48:45;38.90;27.40
63219;DHT22;49320;52.512;13.448;2022-08-04T15:51:23;38.90;27.70
63219;DHT22;49320;52.512;13.448;2022-08-04T15:58:56;38.80;27.70
63219;DHT22;49320;52.512;13.448;2022-08-04T16:01:24;38.80;27.70
63219;DHT22;49320;52.512;13.448;2022-08-04T16:03:53;38.90;27.80
63219;DHT22;49320;52.512;13.448;2022-08-04T16:09:00;38.90;28.20
63219;DHT22;49320;52.512;13.448;2022-08-04T16:16:46;39.00;27.80
63219;DHT22;49320;52.512;13.448;2022-08-04T16:22:02;38.90;27.60
63219;DHT22;49320;52.512;13.448;2022-08-04T16:24:35;38.90;27.80
63219;DHT22;49320;52.512;13.448;2022-08-04T16:27:05;38.80;27.60
63219;DHT22;49320;52.512;13.448;2022-08-04T16:29:34;38.80;27.70
63219;DHT22;49320;52.512;13.448;2022-08-04T16:32:16;38.70;27.80
63219;DHT22;49320;52.512;13.448;2022-08-04T16:34:45;38.70;27.80
63219;DHT22;49320;52.512;13.448;2022-08-04T16:37:24;38.60;27.70
63219;DHT22;49320;52.512;13.448;2022-08-04T16:40:28;38.60;27.70
63219;DHT22;49320;52.512;13.448;2022-08-04T16:43:14;38.60;27.60
63219;DHT22;49320;52.512;13.448;2022-08-04T16:45:54;38.60;27.90
63219;DHT22;49320;52.512;13.448;2022-08-04T16:48:26;38.60;27.90
63219;DHT22;49320;52.512;13.448;2022-08-04T16:51:02;38.50;27.90
63219;DHT22;49320;52.512;13.448;2022-08-04T16:53:37;38.50;27.90
63219;DHT22;49320;52.512;13.448;2022-08-04T16:56:31;38.50;27.80
63219;DHT22;49320;52.512;13.448;2022-08-04T16:59:11;38.40;27.80
63219;DHT22;49320;52.512;13.448;2022-08-04T17:01:45;38.50;27.80
63219;DHT22;49320;52.512;13.448;2022-08-04T17:04:14;38.40;27.80
63219;DHT22;49320;52.512;13.448;2022-08-04T17:06:44;38.40;28.00
63219;DHT22;49320;52.512;13.448;2022-08-04T17:09:16;38.40;28.00
63219;DHT22;49320;52.512;13.448;2022-08-04T17:11:46;38.40;28.10
63219;DHT22;49320;52.512;13.448;2022-08-04T17:14:20;38.40;28.10
63219;DHT22;49320;52.512;13.448;2022-08-04T17:16:58;38.30;28.10
63219;DHT22;49320;52.512;13.448;2022-08-04T17:19:27;38.40;28.10
63219;DHT22;49320;52.512;13.448;2022-08-04T17:21:59;38.30;28.10
63219;DHT22;49320;52.512;13.448;2022-08-04T17:24:36;38.40;28.10
63219;DHT22;49320;52.512;13.448;2022-08-04T17:27:07;38.30;27.90
63219;DHT22;49320;52.512;13.448;2022-08-04T17:29:56;38.40;28.10
63219;DHT22;49320;52.512;13.448;2022-08-04T17:32:22;38.50;28.10
63219;DHT22;49320;52.512;13.448;2022-08-04T17:34:54;38.60;28.20
63219;DHT22;49320;52.512;13.448;2022-08-04T17:37:29;38.50;28.10
63219;DHT22;49320;52.512;13.448;2022-08-04T17:40:12;38.60;28.10
63219;DHT22;49320;52.512;13.448;2022-08-04T17:43:04;38.60;28.00
63219;DHT22;49320;52.512;13.448;2022-08-04T17:51:52;38.60;28.00
63219;DHT22;49320;52.512;13.448;2022-08-04T17:54:37;38.60;28.10
63219;DHT22;49320;52.512;13.448;2022-08-04T17:57:15;38.50;28.20
63219;DHT22;49320;52.512;13.448;2022-08-04T17:59:50;38.40;28.20
63219;DHT22;49320;52.512;13.448;2022-08-04T18:02:27;38.20;28.30
63219;DHT22;49320;52.512;13.448;2022-08-04T18:05:00;38.10;28.40
63219;DHT22;49320;52.512;13.448;2022-08-04T18:07:39;38.00;28.40
63219;DHT22;49320;52.512;13.448;2022-08-04T18:10:41;37.90;28.50
63219;DHT22;49320;52.512;13.448;2022-08-04T18:13:23;37.70;28.50
63219;DHT22;49320;52.512;13.448;2022-08-04T18:16:04;37.50;28.60
63219;DHT22;49320;52.512;13.448;2022-08-04T18:19:07;37.40;28.90
63219;DHT22;49320;52.512;13.448;2022-08-04T18:21:35;37.30;28.90
63219;DHT22;49320;52.512;13.448;2022-08-04T18:24:22;37.20;28.90
63219;DHT22;49320;52.512;13.448;2022-08-04T18:27:09;37.00;28.90
63219;DHT22;49320;52.512;13.448;2022-08-04T18:29:40;36.90;29.10
63219;DHT22;49320;52.512;13.448;2022-08-04T18:32:28;36.70;29.10
63219;DHT22;49320;52.512;13.448;2022-08-04T18:34:58;36.60;29.20
63219;DHT22;49320;52.512;13.448;2022-08-04T18:37:37;36.40;29.20
63219;DHT22;49320;52.512;13.448;2022-08-04T18:40:25;36.30;29.40
63219;DHT22;49320;52.512;13.448;2022-08-04T18:43:04;36.20;29.60
63219;DHT22;49320;52.512;13.448;2022-08-04T18:45:31;36.10;29.80
63219;DHT22;49320;52.512;13.448;2022-08-04T18:48:01;35.90;29.90
63219;DHT22;49320;52.512;13.448;2022-08-04T18:50:40;35.80;30.00
63219;DHT22;49320;52.512;13.448;2022-08-04T18:53:28;35.60;30.10
63219;DHT22;49320;52.512;13.448;2022-08-04T18:56:02;35.50;30.20
63219;DHT22;49320;52.512;13.448;2022-08-04T18:58:41;35.40;30.50
63219;DHT22;49320;52.512;13.448;2022-08-04T19:01:10;35.30;30.70
63219;DHT22;49320;52.512;13.448;2022-08-04T19:03:40;35.10;30.80
63219;DHT22;49320;52.512;13.448;2022-08-04T19:06:10;35.00;31.00
63219;DHT22;49320;52.512;13.448;2022-08-04T19:08:37;34.90;31.10
63219;DHT22;49320;52.512;13.448;2022-08-04T19:11:08;34.80;31.20
63219;DHT22;49320;52.512;13.448;2022-08-04T19:13:55;34.70;31.50
63219;DHT22;49320;52.512;13.448;2022-08-04T19:16:25;34.50;31.50
63219;DHT22;49320;52.512;13.448;2022-08-04T19:18:54;34.50;31.70
63219;DHT22;49320;52.512;13.448;2022-08-04T19:21:22;34.20;31.80
63219;DHT22;49320;52.512;13.448;2022-08-04T19:24:09;34.30;32.10
63219;DHT22;49320;52.512;13.448;2022-08-04T19:26:58;34.20;32.20
63219;DHT22;49320;52.512;13.448;2022-08-04T19:29:25;34.10;32.30
63219;DHT22;49320;52.512;13.448;2022-08-04T19:32:04;33.90;32.40
63219;DHT22;49320;52.512;13.448;2022-08-04T19:34:42;33.90;32.60